Time;durP1;ratioP1;P1;durP2;ratioP2;P2;SDS_P1;SDS_P2;PMS_P1;PMS_P2;Temp;Humidity;BMP_temperature;BMP_pressure;BME280_temperature;BME280_humidity;BME280_pressure;Samples;Min_cycle;Max_cycle;Signal;HPM_P1;HPM_P2
2022/10/05 00:00:12;;;;;;;10.57;6.63;;;15.20;99.90;;;;;;5117201;27;20145;-75
2022/10/05 00:02:38;;;;;;;8.95;6.70;;;15.20;99.90;;;;;;5136854;27;20035;-76
2022/10/05 00:05:17;;;;;;;6.55;5.95;;;15.30;99.90;;;;;;5138054;27;20250;-77
2022/10/05 00:07:43;;;;;;;7.97;7.15;;;14.80;99.90;;;;;;5119172;27;20506;-77
2022/10/05 00:10:14;;;;;;;9.55;6.20;;;15.20;99.90;;;;;;5099345;27;20077;-78
2022/10/05 00:12:42;;;;;;;7.97;6.90;;;16.30;99.90;;;;;;5117157;27;20043;-79
2022/10/05 00:15:11;;;;;;;8.75;6.07;;;15.20;99.90;;;;;;5137841;27;20541;-76
2022/10/05 00:17:37;;;;;;;8.93;6.75;;;15.60;99.90;;;;;;5110301;27;20111;-78
2022/10/05 00:20:22;;;;;;;13.40;6.80;;;15.20;99.90;;;;;;5117347;27;20513;-80
2022/10/05 00:22:55;;;;;;;8.55;6.35;;;15.20;99.90;;;;;;5116604;27;20047;-78
2022/10/05 00:25:21;;;;;;;10.38;5.97;;;15.10;99.90;;;;;;5117100;27;20138;-77
2022/10/05 00:27:59;;;;;;;10.13;6.60;;;15.20;99.90;;;;;;5109110;27;20171;-81
2022/10/05 00:30:29;;;;;;;8.15;5.90;;;15.20;99.90;;;;;;5118984;27;20038;-79
2022/10/05 00:32:55;;;;;;;6.65;5.60;;;15.80;99.90;;;;;;5131835;27;20043;-77
2022/10/05 00:35:21;;;;;;;7.10;5.55;;;15.10;99.90;;;;;;5123030;27;20035;-80
2022/10/05 00:37:52;;;;;;;10.13;5.63;;;15.10;99.90;;;;;;5114194;27;20118;-80
2022/10/05 00:40:36;;;;;;;6.93;5.78;;;15.20;99.90;;;;;;5141860;27;20042;-77
2022/10/05 00:43:43;;;;;;;9.23;5.47;;;15.10;99.90;;;;;;5137200;27;20073;-76
2022/10/05 00:46:26;;;;;;;6.38;4.80;;;15.20;99.90;;;;;;5140203;27;20086;-77
2022/10/05 00:49:02;;;;;;;6.43;4.65;;;15.10;99.90;;;;;;5120002;27;20555;-77
2022/10/05 00:51:30;;;;;;;7.78;5.13;;;15.10;99.90;;;;;;5120577;27;20084;-77
2022/10/05 00:54:27;;;;;;;6.75;4.95;;;15.10;99.90;;;;;;5120598;27;20054;-77
2022/10/05 00:57:24;;;;;;;8.52;4.38;;;15.10;99.90;;;;;;5137483;27;20516;-77
2022/10/05 01:00:02;;;;;;;6.72;4.03;;;15.10;99.90;;;;;;5124890;27;20269;-77
2022/10/05 01:03:08;;;;;;;5.38;3.53;;;15.10;99.90;;;;;;5135639;27;20122;-82
2022/10/05 01:05:45;;;;;;;5.20;4.20;;;15.10;99.90;;;;;;5135922;27;20365;-80
2022/10/05 01:08:20;;;;;;;5.32;4.28;;;15.10;99.90;;;;;;5125319;27;20099;-76
2022/10/05 01:11:17;;;;;;;6.70;3.80;;;15.10;99.90;;;;;;5135091;27;20051;-77
2022/10/05 01:13:46;;;;;;;6.88;4.45;;;15.10;99.90;;;;;;5117220;27;20477;-79
2022/10/05 01:16:14;;;;;;;4.47;3.28;;;15.10;99.90;;;;;;5103800;27;20039;-78
2022/10/05 01:19:08;;;;;;;7.72;3.92;;;15.20;99.90;;;;;;5122292;27;20042;-82
2022/10/05 01:21:51;;;;;;;5.20;4.00;;;15.20;99.90;;;;;;5117396;27;20161;-80
2022/10/05 01:24:41;;;;;;;6.28;4.00;;;15.10;99.90;;;;;;5122363;27;20375;-78
2022/10/05 01:27:14;;;;;;;6.75;3.83;;;15.10;99.90;;;;;;5110851;27;20055;-78
2022/10/05 01:29:55;;;;;;;6.60;4.55;;;15.30;99.90;;;;;;5107240;27;21396;-79
2022/10/05 01:32:27;;;;;;;6.93;4.57;;;15.10;99.90;;;;;;5141723;27;20110;-80
2022/10/05 01:35:04;;;;;;;6.15;4.50;;;15.10;99.90;;;;;;5099214;27;20525;-77
2022/10/05 01:37:48;;;;;;;6.53;4.80;;;15.20;99.90;;;;;;5111775;27;20350;-80
2022/10/05 01:40:32;;;;;;;7.50;4.93;;;15.20;99.90;;;;;;5104035;27;20051;-77
2022/10/05 01:43:28;;;;;;;7.18;4.85;;;15.20;99.90;;;;;;5117291;27;20035;-81
2022/10/05 01:46:05;;;;;;;9.70;5.40;;;15.10;99.90;;;;;;5127166;27;20045;-80
2022/10/05 01:49:01;;;;;;;9.57;5.40;;;15.10;99.90;;;;;;5117895;27;20047;-78
2022/10/05 01:52:05;;;;;;;8.43;6.00;;;15.10;99.90;;;;;;5139775;27;20066;-77
2022/10/05 01:55:11;;;;;;;6.20;5.60;;;16.20;99.90;;;;;;5134903;27;20042;-80
2022/10/05 01:58:03;;;;;;;8.00;5.07;;;15.10;99.90;;;;;;5118287;27;20542;-79
2022/10/05 02:00:35;;;;;;;8.13;6.03;;;15.10;99.90;;;;;;5115213;27;20183;-79
2022/10/05 02:03:09;;;;;;;5.97;5.32;;;15.00;99.90;;;;;;5096422;27;20054;-77
2022/10/05 02:05:43;;;;;;;7.28;5.82;;;15.00;99.90;;;;;;5133659;27;20038;-80
2022/10/05 02:08:35;;;;;;;9.35;6.53;;;15.70;99.90;;;;;;5101518;27;20046;-79
2022/10/05 02:11:06;;;;;;;6.93;5.60;;;15.00;99.90;;;;;;5098075;27;20103;-77
2022/10/05 02:13:37;;;;;;;12.27;5.97;;;15.00;99.90;;;;;;5117958;27;20525;-77
2022/10/05 02:16:08;;;;;;;8.40;5.68;;;15.00;99.90;;;;;;5104148;27;20035;-80
2022/10/05 02:19:00;;;;;;;7.38;5.50;;;15.00;99.90;;;;;;5135736;27;20130;-77
2022/10/05 02:21:28;;;;;;;7.80;5.85;;;14.90;99.90;;;;;;5103620;27;20149;-77
2022/10/05 02:23:58;;;;;;;12.13;6.15;;;14.90;99.90;;;;;;5116500;27;20059;-76
2022/10/05 02:26:25;;;;;;;5.93;4.97;;;14.90;99.90;;;;;;5142584;27;20041;-80
2022/10/05 02:29:01;;;;;;;8.88;5.78;;;15.00;99.90;;;;;;5144501;27;20057;-77
2022/10/05 02:31:43;;;;;;;9.27;5.75;;;16.30;99.90;;;;;;5136057;27;20043;-77
2022/10/05 02:34:38;;;;;;;6.32;5.32;;;14.90;99.90;;;;;;5097249;27;20117;-78
2022/10/05 02:37:26;;;;;;;7.13;5.70;;;15.00;99.90;;;;;;5106835;27;20043;-77
2022/10/05 02:39:57;;;;;;;6.10;5.30;;;14.90;99.90;;;;;;5102567;27;20060;-81
2022/10/05 02:43:03;;;;;;;7.22;4.95;;;14.90;99.90;;;;;;5123020;27;20035;-77
2022/10/05 02:46:00;;;;;;;7.80;5.28;;;15.00;99.90;;;;;;5121987;27;20107;-78
2022/10/05 02:48:39;;;;;;;6.68;5.18;;;15.00;99.90;;;;;;5101730;27;20104;-79
2022/10/05 02:51:49;;;;;;;5.28;4.32;;;15.00;99.90;;;;;;5124387;27;20038;-77
2022/10/05 02:54:20;;;;;;;6.32;4.63;;;15.00;99.90;;;;;;5082159;27;20069;-80
2022/10/05 02:57:04;;;;;;;5.53;4.18;;;15.10;99.90;;;;;;5142528;27;20039;-77
2022/10/05 02:59:56;;;;;;;5.65;3.92;;;15.00;99.90;;;;;;5105826;27;20448;-77
2022/10/05 03:02:32;;;;;;;8.93;4.60;;;15.00;99.90;;;;;;5105077;27;20070;-80
2022/10/05 03:05:13;;;;;;;4.53;4.13;;;15.00;99.90;;;;;;5101399;27;20111;-76
2022/10/05 03:07:51;;;;;;;7.88;4.65;;;13.90;99.90;;;;;;5138739;27;20066;-79
2022/10/05 03:10:35;;;;;;;4.47;4.15;;;15.00;99.90;;;;;;5101656;27;20117;-79
2022/10/05 03:13:10;;;;;;;6.55;4.18;;;15.00;99.90;;;;;;5119044;27;20061;-77
2022/10/05 03:15:47;;;;;;;4.68;3.92;;;15.00;99.90;;;;;;5120817;27;20480;-82
2022/10/05 03:18:13;;;;;;;5.03;3.85;;;15.00;99.90;;;;;;5102683;27;20039;-77
2022/10/05 03:20:50;;;;;;;7.47;3.95;;;15.00;99.90;;;;;;5137000;27;20038;-77
2022/10/05 03:23:46;;;;;;;5.05;3.72;;;15.00;99.90;;;;;;5102498;27;20042;-77
2022/10/05 03:26:52;;;;;;;5.40;3.97;;;15.00;99.90;;;;;;5138913;27;20461;-77
2022/10/05 03:29:26;;;;;;;5.50;3.53;;;15.00;99.90;;;;;;5118713;27;20039;-77
2022/10/05 03:32:22;;;;;;;5.25;3.70;;;15.00;99.90;;;;;;5118124;27;20039;-77
2022/10/05 03:35:38;;;;;;;5.60;3.40;;;15.00;99.90;;;;;;5142378;27;20130;-78
2022/10/05 03:38:09;;;;;;;4.10;3.28;;;14.90;99.90;;;;;;5101465;28;20113;-78
2022/10/05 03:40:55;;;;;;;3.72;2.80;;;15.00;99.90;;;;;;5118671;27;20046;-77
2022/10/05 03:43:47;;;;;;;5.63;3.17;;;15.00;99.90;;;;;;5112687;27;20118;-78
2022/10/05 03:46:21;;;;;;;3.33;3.00;;;15.00;99.90;;;;;;5104643;27;20061;-80
2022/10/05 03:48:56;;;;;;;7.40;3.53;;;15.00;99.90;;;;;;5106470;27;20066;-77
2022/10/05 03:51:30;;;;;;;4.78;3.47;;;15.00;99.90;;;;;;5146492;27;20054;-77
2022/10/05 03:54:15;;;;;;;8.40;3.65;;;14.90;99.90;;;;;;5105890;27;20027;-78
2022/10/05 03:56:50;;;;;;;4.68;3.35;;;16.40;99.90;;;;;;5103499;27;20145;-80
2022/10/05 03:59:27;;;;;;;5.30;3.60;;;14.90;99.90;;;;;;5108285;27;20155;-78
2022/10/05 04:02:04;;;;;;;5.00;3.45;;;14.90;99.90;;;;;;5116581;27;20485;-78
2022/10/05 04:04:51;;;;;;;3.90;3.33;;;14.90;99.90;;;;;;5109950;27;20038;-78
2022/10/05 04:07:59;;;;;;;8.43;3.80;;;14.90;99.90;;;;;;5120345;27;20054;-78
2022/10/05 04:10:32;;;;;;;7.07;3.72;;;14.90;99.90;;;;;;5116303;27;20125;-76
2022/10/05 04:13:08;;;;;;;5.82;4.10;;;14.80;99.90;;;;;;5141495;27;20064;-80
2022/10/05 04:15:45;;;;;;;5.43;3.92;;;14.90;99.90;;;;;;5118929;27;20460;-78
2022/10/05 04:18:24;;;;;;;6.55;3.85;;;15.90;99.90;;;;;;5137908;27;20095;-77
2022/10/05 04:21:05;;;;;;;10.02;4.10;;;14.90;99.90;;;;;;5096490;27;20099;-77
2022/10/05 04:23:44;;;;;;;7.20;4.00;;;14.80;99.90;;;;;;5118721;27;20489;-78
2022/10/05 04:26:18;;;;;;;5.18;4.55;;;14.90;99.90;;;;;;5119760;27;20039;-81
2022/10/05 04:29:01;;;;;;;7.82;3.75;;;15.70;99.90;;;;;;5116635;27;20545;-78
2022/10/05 04:31:45;;;;;;;7.63;4.00;;;14.80;99.90;;;;;;5121031;27;20115;-76
2022/10/05 04:34:24;;;;;;;;;;;14.80;99.90;;;;;;5100843;27;20053;-78
2022/10/05 04:36:58;;;;;;;8.27;4.70;;;14.80;99.90;;;;;;5136379;27;19927;-76
2022/10/05 04:39:34;;;;;;;5.47;4.25;;;15.00;99.90;;;;;;5117817;27;20039;-78
2022/10/05 04:42:09;;;;;;;7.45;4.40;;;14.80;99.90;;;;;;5101094;27;20722;-79
2022/10/05 04:45:02;;;;;;;5.22;4.30;;;14.70;99.90;;;;;;5119633;27;20047;-76
2022/10/05 04:47:57;;;;;;;6.25;4.28;;;14.70;99.90;;;;;;5118296;27;20046;-78
2022/10/05 04:50:39;;;;;;;7.35;4.13;;;14.80;99.90;;;;;;5136156;27;20058;-76
2022/10/05 04:53:33;;;;;;;6.85;5.13;;;16.00;99.90;;;;;;5136568;27;20042;-80
2022/10/05 04:56:09;;;;;;;8.77;5.03;;;14.80;99.90;;;;;;5132098;27;20485;-76
2022/10/05 04:59:12;;;;;;;5.70;5.20;;;14.70;99.90;;;;;;5139125;27;20047;-77
2022/10/05 05:02:11;;;;;;;7.07;5.43;;;14.70;99.90;;;;;;5094710;27;20150;-82
2022/10/05 05:04:57;;;;;;;12.95;6.20;;;14.70;99.90;;;;;;5116721;27;20073;-76
2022/10/05 05:07:41;;;;;;;13.02;6.35;;;14.60;99.90;;;;;;5123539;27;20462;-77
2022/10/05 05:10:32;;;;;;;7.75;6.03;;;14.70;99.90;;;;;;5120490;27;20039;-76
2022/10/05 05:13:22;;;;;;;10.65;7.03;;;14.70;99.90;;;;;;5102770;27;20056;-82
2022/10/05 05:16:24;;;;;;;13.35;8.00;;;14.70;99.90;;;;;;5112891;27;20066;-76
2022/10/05 05:18:55;;;;;;;10.27;7.30;;;14.60;99.90;;;;;;5129246;27;20035;-75
2022/10/05 05:21:31;;;;;;;12.95;7.43;;;14.60;99.90;;;;;;5102556;27;20058;-78
2022/10/05 05:24:22;;;;;;;10.23;7.25;;;14.60;99.90;;;;;;5118366;27;20406;-79
2022/10/05 05:27:09;;;;;;;9.98;6.90;;;14.60;99.90;;;;;;5099494;28;20043;-78
2022/10/05 05:30:01;;;;;;;8.32;6.93;;;15.50;99.90;;;;;;5122078;27;20126;-77
2022/10/05 05:32:33;;;;;;;8.95;6.63;;;14.60;99.90;;;;;;5120432;28;20092;-79
2022/10/05 05:35:13;;;;;;;8.35;6.50;;;14.60;99.90;;;;;;5116361;28;20043;-79
2022/10/05 05:37:55;;;;;;;10.30;6.60;;;14.60;99.90;;;;;;5097236;28;20039;-78
2022/10/05 05:40:40;;;;;;;11.50;6.03;;;15.20;99.90;;;;;;5105219;28;20043;-80
2022/10/05 05:43:15;;;;;;;7.53;6.55;;;14.60;99.90;;;;;;5114740;28;20509;-77
2022/10/05 05:46:05;;;;;;;9.45;6.90;;;14.60;99.90;;;;;;5119204;28;20051;-83
2022/10/05 05:48:45;;;;;;;10.23;6.72;;;16.10;99.90;;;;;;5118922;28;20058;-78
2022/10/05 05:51:16;;;;;;;7.45;6.20;;;13.40;99.90;;;;;;5105504;28;20043;-78
2022/10/05 05:53:49;;;;;;;10.75;6.30;;;14.50;99.90;;;;;;5117950;28;20036;-81
2022/10/05 05:56:34;;;;;;;6.38;5.72;;;15.90;99.90;;;;;;5105924;28;20031;-79
2022/10/05 05:59:13;;;;;;;9.73;6.63;;;15.60;99.90;;;;;;4394182;28;10000748;-81
2022/10/05 06:01:49;;;;;;;11.35;7.18;;;14.50;99.90;;;;;;5100430;28;20035;-81
2022/10/05 06:04:21;;;;;;;8.90;6.53;;;14.60;99.90;;;;;;5120156;27;20071;-80
2022/10/05 06:06:52;;;;;;;11.13;6.93;;;14.60;99.90;;;;;;5104675;28;20035;-77
2022/10/05 06:09:39;;;;;;;7.82;6.47;;;14.60;99.90;;;;;;5128131;27;20184;-78
2022/10/05 06:12:19;;;;;;;8.32;5.82;;;14.60;99.90;;;;;;5126577;27;20034;-78
2022/10/05 06:15:02;;;;;;;10.80;5.95;;;14.60;99.90;;;;;;5102626;28;20333;-78
2022/10/05 06:17:57;;;;;;;11.05;7.20;;;14.50;99.90;;;;;;5121684;27;20035;-80
2022/10/05 06:20:50;;;;;;;9.13;5.80;;;15.10;99.90;;;;;;5117171;27;20520;-77
2022/10/05 06:23:22;;;;;;;8.70;6.28;;;14.60;99.90;;;;;;5102012;27;20039;-83
2022/10/05 06:26:06;;;;;;;7.28;5.88;;;14.60;99.90;;;;;;5122656;27;20122;-77
2022/10/05 06:28:31;;;;;;;6.85;6.15;;;14.60;99.90;;;;;;5125695;27;20089;-79
2022/10/05 06:31:09;;;;;;;7.70;5.72;;;15.70;99.90;;;;;;5106128;28;20036;-79
2022/10/05 06:33:51;;;;;;;7.65;5.97;;;14.60;99.90;;;;;;5095445;27;20100;-79
2022/10/05 06:36:19;;;;;;;9.80;6.75;;;14.50;99.90;;;;;;5129366;27;20039;-77
2022/10/05 06:39:13;;;;;;;8.45;5.93;;;14.60;99.90;;;;;;5131320;27;20051;-78
2022/10/05 06:42:16;;;;;;;11.50;6.70;;;14.60;99.90;;;;;;5115019;27;20075;-79
2022/10/05 06:45:08;;;;;;;6.75;5.65;;;14.60;99.90;;;;;;5124062;27;20042;-79
2022/10/05 06:47:53;;;;;;;8.98;5.55;;;14.60;99.90;;;;;;5122846;27;20440;-75
2022/10/05 06:50:41;;;;;;;6.20;5.50;;;14.60;99.90;;;;;;5100749;27;20617;-76
2022/10/05 06:53:25;;;;;;;7.60;5.68;;;14.60;99.90;;;;;;5132087;27;20049;-81
2022/10/05 06:56:14;;;;;;;7.85;6.00;;;14.60;99.90;;;;;;5118455;27;20065;-81
2022/10/05 06:59:08;;;;;;;10.30;5.88;;;14.60;99.90;;;;;;5126177;27;20522;-79
2022/10/05 07:01:52;;;;;;;5.93;4.97;;;14.60;99.90;;;;;;5120103;27;20127;-78
2022/10/05 07:04:30;;;;;;;5.78;5.20;;;14.60;99.90;;;;;;5127171;27;20156;-85
2022/10/05 07:07:01;;;;;;;11.52;8.13;;;14.80;99.90;;;;;;5129798;27;20498;-80
2022/10/05 07:09:41;;;;;;;12.70;7.60;;;15.30;99.90;;;;;;5105090;27;20047;-81
2022/10/05 07:12:48;;;;;;;8.80;5.65;;;14.60;99.90;;;;;;5124431;27;20038;-81
2022/10/05 07:15:44;;;;;;;6.80;4.57;;;14.60;99.90;;;;;;5127751;27;20042;-77
2022/10/05 07:18:48;;;;;;;4.82;4.32;;;14.70;99.90;;;;;;5125907;27;20039;-80
2022/10/05 07:21:38;;;;;;;7.45;4.10;;;14.70;99.90;;;;;;5122253;27;20410;-86
2022/10/05 07:24:26;;;;;;;6.22;4.45;;;14.60;99.90;;;;;;5100158;28;20100;-84
2022/10/05 07:27:15;;;;;;;4.90;4.13;;;14.60;99.90;;;;;;5120492;27;20181;-86
2022/10/05 07:29:57;;;;;;;4.68;4.20;;;14.70;99.90;;;;;;5127785;27;20035;-86
2022/10/05 07:32:39;;;;;;;7.10;4.28;;;14.60;99.90;;;;;;5125813;27;20466;-82
2022/10/05 07:37:53;;;;;;;5.65;3.92;;;14.70;99.90;;;;;;5116889;27;20078;-76
2022/10/05 07:38:01;;;;;;;6.18;3.70;;;14.70;99.90;;;;;;5120209;27;20039;-78
2022/10/05 07:40:42;;;;;;;6.15;3.67;;;14.60;99.90;;;;;;5125425;27;20055;-77
2022/10/05 07:43:45;;;;;;;6.38;4.05;;;14.80;99.90;;;;;;5117011;27;20110;-75
2022/10/05 07:46:27;;;;;;;4.40;3.40;;;14.70;99.90;;;;;;5114890;27;20613;-76
2022/10/05 07:49:02;;;;;;;8.15;3.67;;;14.90;99.90;;;;;;5120414;27;20558;-77
2022/10/05 07:51:40;;;;;;;5.00;3.40;;;14.80;99.90;;;;;;5124615;27;20039;-76
2022/10/05 07:54:14;;;;;;;4.85;3.03;;;14.80;99.90;;;;;;5125134;27;20521;-77
2022/10/05 07:56:42;;;;;;;4.40;2.83;;;14.80;99.90;;;;;;5126502;27;20039;-76
2022/10/05 07:59:34;;;;;;;11.25;2.50;;;15.00;99.90;;;;;;5128442;27;20031;-77
2022/10/05 08:02:30;;;;;;;3.25;1.77;;;16.20;99.90;;;;;;5123235;27;20055;-74
2022/10/05 08:05:02;;;;;;;2.65;2.13;;;14.80;99.90;;;;;;5110190;27;20047;-76
2022/10/05 08:07:32;;;;;;;4.95;3.35;;;14.90;99.90;;;;;;5126067;27;20051;-78
2022/10/05 08:10:38;;;;;;;6.40;4.07;;;14.90;99.90;;;;;;5100982;28;20094;-80
2022/10/05 08:13:28;;;;;;;1.88;1.67;;;14.90;99.90;;;;;;5102187;27;20112;-76
2022/10/05 08:15:59;;;;;;;3.97;1.75;;;14.90;99.90;;;;;;5125897;27;20047;-79
2022/10/05 08:18:44;;;;;;;2.25;1.30;;;15.70;99.90;;;;;;5127335;27;20032;-82
2022/10/05 08:21:10;;;;;;;;;;;15.10;99.90;;;;;;5110348;27;20031;-82
2022/10/05 08:23:53;;;;;;;2.30;1.00;;;15.00;99.90;;;;;;5128918;27;19929;-78
2022/10/05 08:26:37;;;;;;;1.02;1.00;;;15.00;99.90;;;;;;5098892;27;20047;-79
2022/10/05 08:29:16;;;;;;;;;;;15.00;99.90;;;;;;5103024;27;20398;-82
2022/10/05 08:31:47;;;;;;;1.48;1.05;;;15.00;99.90;;;;;;5121751;27;19923;-75
2022/10/05 08:34:28;;;;;;;1.85;1.05;;;16.10;99.90;;;;;;5144251;27;20573;-84
2022/10/05 08:37:03;;;;;;;4.20;1.15;;;15.10;99.90;;;;;;5130844;27;20196;-86
2022/10/05 08:39:35;;;;;;;2.35;1.55;;;15.10;99.90;;;;;;5121021;27;20548;-83
2022/10/05 08:42:35;;;;;;;3.00;1.35;;;16.00;99.90;;;;;;5118329;27;20046;-83
2022/10/05 08:45:10;;;;;;;3.95;1.65;;;15.20;99.90;;;;;;5102783;27;20054;-77
2022/10/05 08:48:11;;;;;;;1.48;1.38;;;15.20;99.90;;;;;;5098973;27;20421;-79
2022/10/05 08:51:11;;;;;;;1.92;1.75;;;15.30;99.90;;;;;;5123174;27;20054;-76
2022/10/05 08:53:56;;;;;;;2.33;1.35;;;15.30;99.90;;;;;;5124480;27;20053;-78
2022/10/05 08:56:40;;;;;;;2.95;1.58;;;15.60;99.90;;;;;;5145705;27;20493;-81
2022/10/05 08:59:33;;;;;;;2.03;1.70;;;15.40;99.90;;;;;;5119767;27;20641;-85
2022/10/05 09:02:26;;;;;;;2.22;1.85;;;15.40;99.90;;;;;;5148430;27;20095;-81
2022/10/05 09:05:13;;;;;;;4.63;1.88;;;15.40;99.90;;;;;;5128607;27;20057;-76
2022/10/05 09:08:00;;;;;;;2.10;1.83;;;15.50;99.90;;;;;;5121609;27;20039;-79
2022/10/05 09:10:35;;;;;;;4.22;2.00;;;15.50;99.90;;;;;;5108710;27;20049;-76
2022/10/05 09:13:22;;;;;;;5.65;2.30;;;15.60;99.90;;;;;;5112215;27;20118;-80
2022/10/05 09:16:26;;;;;;;3.05;2.50;;;15.60;99.90;;;;;;5113803;27;20075;-76
2022/10/05 09:19:17;;;;;;;4.45;2.53;;;15.60;99.90;;;;;;5065540;27;20052;-77
2022/10/05 09:22:01;;;;;;;2.53;2.33;;;15.70;99.90;;;;;;5140694;27;20051;-81
2022/10/05 09:24:31;;;;;;;;;;;15.70;99.90;;;;;;5129925;27;20062;-78
2022/10/05 09:27:15;;;;;;;4.32;2.88;;;15.70;99.90;;;;;;5096584;27;19923;-77
2022/10/05 09:30:03;;;;;;;3.47;3.13;;;15.70;99.90;;;;;;5149513;27;20045;-81
2022/10/05 09:33:13;;;;;;;6.40;3.25;;;15.80;99.90;;;;;;5124978;27;20072;-80
2022/10/05 09:35:41;;;;;;;6.63;3.53;;;15.80;99.90;;;;;;5145561;27;20043;-79
2022/10/05 09:38:45;;;;;;;5.68;3.60;;;15.90;99.90;;;;;;5146422;27;20047;-75
2022/10/05 09:41:27;;;;;;;2.42;2.22;;;15.90;99.90;;;;;;5140819;27;20122;-81
2022/10/05 09:44:23;;;;;;;4.22;3.22;;;17.30;99.90;;;;;;5128541;27;20405;-74
2022/10/05 09:47:25;;;;;;;4.03;3.42;;;16.00;99.90;;;;;;5102763;27;20074;-76
2022/10/05 09:50:03;;;;;;;4.45;2.63;;;16.00;99.90;;;;;;5097042;27;20509;-77
2022/10/05 09:52:42;;;;;;;4.32;2.60;;;16.10;99.90;;;;;;5117876;28;20047;-76
2022/10/05 09:55:26;;;;;;;3.53;2.78;;;16.10;99.90;;;;;;5145442;27;20406;-77
2022/10/05 09:58:01;;;;;;;4.40;2.30;;;16.20;99.90;;;;;;5101157;27;20043;-75
2022/10/05 10:00:51;;;;;;;3.80;2.00;;;16.20;99.90;;;;;;5140540;27;20054;-76
2022/10/05 10:03:38;;;;;;;5.22;2.30;;;16.20;99.90;;;;;;5099603;27;20043;-77
2022/10/05 10:06:16;;;;;;;3.47;2.05;;;16.20;99.90;;;;;;5140860;27;20362;-75
2022/10/05 10:08:59;;;;;;;2.78;2.05;;;16.60;99.90;;;;;;5097236;27;20058;-76
2022/10/05 10:11:52;;;;;;;3.30;1.97;;;16.20;99.90;;;;;;5121841;27;20043;-76
2022/10/05 10:14:44;;;;;;;3.92;2.20;;;16.30;99.90;;;;;;5139498;27;20062;-77
2022/10/05 10:17:47;;;;;;;4.18;2.10;;;16.30;99.90;;;;;;5102051;27;20126;-75
2022/10/05 10:20:22;;;;;;;2.47;1.90;;;16.50;99.90;;;;;;5129485;27;20035;-75
2022/10/05 10:23:09;;;;;;;5.10;1.98;;;16.20;99.90;;;;;;5128533;27;20065;-79
2022/10/05 10:25:54;;;;;;;4.15;2.00;;;16.20;99.90;;;;;;5100135;28;20130;-80
2022/10/05 10:28:47;;;;;;;4.85;2.17;;;16.10;99.90;;;;;;5119361;27;20043;-74
2022/10/05 10:31:34;;;;;;;3.35;2.10;;;16.20;99.90;;;;;;5098353;27;20046;-75
2022/10/05 10:34:34;;;;;;;3.55;2.03;;;16.10;99.90;;;;;;5122165;27;20038;-76
2022/10/05 10:37:26;;;;;;;4.20;1.92;;;16.10;99.90;;;;;;5095933;27;20485;-75
2022/10/05 10:40:16;;;;;;;3.38;2.08;;;16.10;99.90;;;;;;5128621;27;20486;-76
2022/10/05 10:43:23;;;;;;;3.20;1.92;;;16.10;99.90;;;;;;5123451;27;20047;-76
2022/10/05 10:46:19;;;;;;;4.15;1.77;;;16.10;99.90;;;;;;5114298;27;20485;-79
2022/10/05 10:48:48;;;;;;;2.80;1.90;;;16.00;99.90;;;;;;5147302;27;20061;-77
2022/10/05 10:51:21;;;;;;;3.17;2.45;;;16.00;99.90;;;;;;5143925;27;20132;-79
2022/10/05 10:53:53;;;;;;;6.10;1.92;;;16.10;99.90;;;;;;5130751;27;20122;-77
2022/10/05 10:56:21;;;;;;;4.03;2.10;;;16.00;99.90;;;;;;5134218;27;20099;-75
2022/10/05 10:59:09;;;;;;;6.40;2.50;;;16.00;99.90;;;;;;5131699;27;20042;-77
2022/10/05 11:01:59;;;;;;;3.88;2.25;;;16.00;99.90;;;;;;5121756;27;20536;-75
2022/10/05 11:04:51;;;;;;;5.07;2.25;;;16.00;99.90;;;;;;5121898;27;20528;-76
2022/10/05 11:07:23;;;;;;;2.47;2.13;;;16.00;99.90;;;;;;5127555;27;20046;-75
2022/10/05 11:09:51;;;;;;;2.88;1.83;;;16.00;99.90;;;;;;5122411;27;20043;-76
2022/10/05 11:12:43;;;;;;;4.82;2.80;;;16.00;99.90;;;;;;5132866;27;20034;-77
2022/10/05 11:15:30;;;;;;;3.90;2.45;;;16.00;99.90;;;;;;5125134;27;20043;-76
2022/10/05 11:18:15;;;;;;;1.85;1.75;;;15.90;99.90;;;;;;5129049;27;20588;-77
2022/10/05 11:21:03;;;;;;;2.58;2.13;;;15.90;99.90;;;;;;5138223;27;20034;-80
2022/10/05 11:23:57;;;;;;;2.42;1.80;;;16.00;99.90;;;;;;5132952;27;20133;-76
2022/10/05 11:26:34;;;;;;;3.63;1.92;;;15.90;99.90;;;;;;5106810;27;20047;-78
2022/10/05 11:29:20;;;;;;;6.72;2.22;;;16.00;99.90;;;;;;5117809;27;20086;-79
2022/10/05 11:32:17;;;;;;;2.28;2.03;;;17.40;99.90;;;;;;5092569;28;20135;-81
2022/10/05 11:34:58;;;;;;;2.80;2.30;;;16.00;99.90;;;;;;5115940;27;20501;-79
2022/10/05 11:37:56;;;;;;;6.32;1.98;;;16.00;99.90;;;;;;5122799;27;20031;-75
2022/10/05 11:40:36;;;;;;;2.00;1.85;;;16.00;99.90;;;;;;5096419;27;20074;-75
2022/10/05 11:43:27;;;;;;;3.08;2.10;;;16.00;99.90;;;;;;5103165;27;20075;-78
2022/10/05 11:46:12;;;;;;;5.43;2.50;;;16.00;99.90;;;;;;5125933;27;20039;-76
2022/10/05 11:49:12;;;;;;;4.03;2.10;;;15.90;99.90;;;;;;5111448;27;20046;-76
2022/10/05 11:52:05;;;;;;;1.95;1.85;;;15.90;99.90;;;;;;5122528;27;20044;-75
2022/10/05 11:54:51;;;;;;;4.05;2.17;;;16.00;99.90;;;;;;5124165;27;20127;-76
2022/10/05 11:57:27;;;;;;;3.05;1.95;;;16.00;99.90;;;;;;5126429;27;20641;-77
2022/10/05 12:00:10;;;;;;;1.80;1.70;;;16.00;99.90;;;;;;5103535;27;20083;-75
2022/10/05 12:02:53;;;;;;;3.70;1.90;;;16.00;99.90;;;;;;5126351;27;20051;-76
2022/10/05 12:05:35;;;;;;;2.40;1.58;;;16.00;99.90;;;;;;5113591;27;20051;-77
2022/10/05 12:08:09;;;;;;;1.88;1.33;;;16.00;99.90;;;;;;5095822;27;20036;-76
2022/10/05 12:10:53;;;;;;;4.75;1.20;;;16.20;99.90;;;;;;5104461;28;20126;-77
2022/10/05 12:13:36;;;;;;;2.28;1.67;;;16.00;99.90;;;;;;5122567;27;20052;-78
2022/10/05 12:16:14;;;;;;;1.98;1.33;;;16.00;99.90;;;;;;5125732;27;20126;-79
2022/10/05 12:19:01;;;;;;;3.78;1.50;;;16.00;99.90;;;;;;5128714;27;20051;-80
2022/10/05 12:21:51;;;;;;;3.50;1.73;;;16.00;99.90;;;;;;5139308;27;20490;-77
2022/10/05 12:24:36;;;;;;;4.32;1.65;;;16.10;99.90;;;;;;5136073;27;20051;-78
2022/10/05 12:27:10;;;;;;;1.80;1.70;;;16.10;99.90;;;;;;5148661;27;20050;-78
2022/10/05 12:30:19;;;;;;;4.18;1.83;;;16.10;99.90;;;;;;5100345;27;20076;-77
2022/10/05 12:32:49;;;;;;;3.80;1.77;;;16.10;99.90;;;;;;5051921;27;20441;-74
2022/10/05 12:36:02;;;;;;;2.25;1.95;;;16.10;99.90;;;;;;5142014;27;20115;-76
2022/10/05 12:38:45;;;;;;;6.18;1.80;;;16.10;99.90;;;;;;5103825;27;20043;-74
2022/10/05 12:41:36;;;;;;;3.88;1.33;;;16.10;99.90;;;;;;5102423;27;20542;-76
2022/10/05 12:44:08;;;;;;;2.67;1.92;;;16.10;99.90;;;;;;5131207;27;20058;-75
2022/10/05 12:46:53;;;;;;;2.40;1.70;;;16.10;99.90;;;;;;5104298;27;20486;-75
2022/10/05 12:49:55;;;;;;;8.40;2.35;;;16.10;99.90;;;;;;5146624;27;20049;-75
2022/10/05 12:52:36;;;;;;;4.47;2.00;;;16.10;99.90;;;;;;5100563;27;20085;-77
2022/10/05 12:55:11;;;;;;;4.00;2.08;;;16.20;99.90;;;;;;5131592;27;20131;-76
2022/10/05 12:57:50;;;;;;;3.35;1.95;;;16.20;99.90;;;;;;5117235;27;20034;-77
2022/10/05 13:00:18;;;;;;;7.15;2.88;;;16.10;99.90;;;;;;5128678;27;20119;-77
2022/10/05 13:02:52;;;;;;;4.63;2.30;;;16.10;99.90;;;;;;5115468;27;20631;-78
2022/10/05 13:05:28;;;;;;;7.82;2.65;;;16.10;99.90;;;;;;5110177;27;20034;-78
2022/10/05 13:08:28;;;;;;;2.92;1.90;;;16.10;99.90;;;;;;5105293;27;20032;-79
2022/10/05 13:11:18;;;;;;;3.75;1.75;;;16.10;99.90;;;;;;5145109;27;20075;-77
2022/10/05 13:14:06;;;;;;;1.92;1.83;;;16.10;99.90;;;;;;5131461;27;20051;-77
2022/10/05 13:17:00;;;;;;;2.33;2.05;;;16.20;99.90;;;;;;5127864;27;20050;-78
2022/10/05 13:19:55;;;;;;;3.10;1.83;;;16.20;99.90;;;;;;5097456;27;20108;-80
2022/10/05 13:22:33;;;;;;;3.00;1.80;;;17.10;99.90;;;;;;5138991;27;20057;-76
2022/10/05 13:25:33;;;;;;;5.78;2.63;;;17.20;99.90;;;;;;5120281;27;20058;-77
2022/10/05 13:28:20;;;;;;;4.22;2.20;;;16.20;99.90;;;;;;5119821;27;20178;-77
2022/10/05 13:31:11;;;;;;;5.60;2.67;;;17.20;99.90;;;;;;5115683;27;20128;-77
2022/10/05 13:33:49;;;;;;;2.78;2.38;;;16.30;99.90;;;;;;5139836;27;20088;-82
2022/10/05 13:36:37;;;;;;;8.02;2.83;;;16.30;99.90;;;;;;5119429;27;20073;-76
2022/10/05 13:39:19;;;;;;;4.60;2.80;;;16.30;99.90;;;;;;5101277;27;20049;-78
2022/10/05 13:41:53;;;;;;;2.85;2.63;;;16.30;99.90;;;;;;5107775;27;20038;-78
2022/10/05 13:44:41;;;;;;;4.80;2.60;;;16.30;99.90;;;;;;5097749;27;20095;-85
2022/10/05 13:47:45;;;;;;;4.28;2.20;;;16.40;99.90;;;;;;5100416;27;20084;-82
2022/10/05 13:50:16;;;;;;;7.07;3.00;;;16.40;99.90;;;;;;5120643;27;20073;-80
2022/10/05 13:53:09;;;;;;;8.10;3.50;;;16.40;99.90;;;;;;5115986;27;20046;-78
2022/10/05 13:56:03;;;;;;;4.05;2.10;;;16.50;99.90;;;;;;5099957;27;20512;-80
2022/10/05 13:58:32;;;;;;;5.13;2.40;;;16.50;99.90;;;;;;5102213;27;20077;-80
2022/10/05 14:01:02;;;;;;;3.15;2.40;;;16.50;99.90;;;;;;5101155;27;20049;-79
2022/10/05 14:03:36;;;;;;;7.40;2.42;;;16.60;99.90;;;;;;5102756;28;20147;-82
2022/10/05 14:06:26;;;;;;;4.10;2.53;;;16.50;99.90;;;;;;5145758;27;20146;-80
2022/10/05 14:08:52;;;;;;;5.10;2.15;;;16.60;99.90;;;;;;5140192;27;20091;-81
2022/10/05 14:11:33;;;;;;;5.47;2.25;;;16.80;99.90;;;;;;5097936;27;20032;-78